Time;durP1;ratioP1;P1;durP2;ratioP2;P2;SDS_P1;SDS_P2;PMS_P1;PMS_P2;Temp;Humidity;BMP_temperature;BMP_pressure;BME280_temperature;BME280_humidity;BME280_pressure;Samples;Min_cycle;Max_cycle;Signal;HPM_P1;HPM_P2
2023/05/17 00:00:45;;;;;;;11.13;3.90;;;9.60;68.20;;;;;;5082510;28;46475;-67
2023/05/17 00:03:11;;;;;;;8.90;3.90;;;9.60;68.20;;;;;;5078654;28;46436;-66
2023/05/17 00:05:36;;;;;;;9.43;4.60;;;9.60;68.20;;;;;;5078341;28;46491;-66
2023/05/17 00:08:02;;;;;;;15.37;5.27;;;9.60;68.10;;;;;;5079427;28;45758;-66
2023/05/17 00:10:27;;;;;;;9.60;4.30;;;9.60;68.10;;;;;;5081323;28;45881;-66
2023/05/17 00:12:53;;;;;;;15.27;4.70;;;9.60;68.30;;;;;;5083014;28;46641;-66
2023/05/17 00:15:18;;;;;;;5.63;3.30;;;9.50;68.10;;;;;;5077484;28;46502;-66
2023/05/17 00:17:44;;;;;;;8.90;3.67;;;9.60;68.00;;;;;;5081319;28;46463;-68
2023/05/17 00:20:10;;;;;;;9.50;3.30;;;9.50;68.00;;;;;;5077253;28;46463;-66
2023/05/17 00:22:36;;;;;;;11.03;3.70;;;9.50;68.20;;;;;;5081698;28;46400;-67
2023/05/17 00:25:01;;;;;;;10.20;3.77;;;9.50;68.30;;;;;;5082030;28;46828;-67
2023/05/17 00:27:27;;;;;;;13.33;4.60;;;9.50;68.30;;;;;;5082682;28;46507;-67
2023/05/17 00:29:53;;;;;;;7.60;4.17;;;9.50;68.20;;;;;;5081181;28;46309;-67
2023/05/17 00:32:18;;;;;;;10.60;4.73;;;9.50;68.00;;;;;;5080218;28;46693;-66
2023/05/17 00:34:44;;;;;;;10.10;3.77;;;9.50;67.80;;;;;;5079955;28;47104;-66
2023/05/17 00:37:09;;;;;;;10.90;3.80;;;9.60;67.70;;;;;;5081315;28;46404;-66
2023/05/17 00:39:35;;;;;;;7.70;3.50;;;9.50;67.50;;;;;;5083111;28;46277;-66
2023/05/17 00:42:01;;;;;;;11.60;4.67;;;9.50;67.60;;;;;;5077715;28;46548;-66
2023/05/17 00:44:26;;;;;;;9.33;3.70;;;9.50;67.60;;;;;;5079576;28;46764;-66
2023/05/17 00:46:52;;;;;;;10.40;4.07;;;9.50;67.80;;;;;;5079018;28;46255;-67
2023/05/17 00:49:18;;;;;;;10.77;3.83;;;9.40;67.90;;;;;;5081774;28;46400;-66
2023/05/17 00:51:44;;;;;;;10.03;4.17;;;9.40;68.00;;;;;;5079312;28;46502;-66
2023/05/17 00:54:10;;;;;;;8.83;3.53;;;9.40;67.90;;;;;;5079956;27;46658;-67
2023/05/17 00:56:37;;;;;;;18.37;4.57;;;9.40;68.00;;;;;;5080731;28;46539;-67
2023/05/17 00:59:05;;;;;;;6.50;4.00;;;9.30;68.00;;;;;;5079189;28;46403;-68
2023/05/17 01:01:32;;;;;;;5.53;3.00;;;9.30;67.80;;;;;;5081842;28;46485;-68
2023/05/17 01:03:58;;;;;;;8.43;3.20;;;9.20;67.90;;;;;;5080943;28;46374;-66
2023/05/17 01:06:24;;;;;;;12.60;3.60;;;9.20;69.10;;;;;;5078424;28;46455;-66
2023/05/17 01:08:50;;;;;;;9.97;3.00;;;9.10;67.60;;;;;;5080950;28;46406;-67
2023/05/17 01:11:23;;;;;;;8.70;2.73;;;9.00;67.70;;;;;;5079837;28;46511;-67
2023/05/17 01:14:21;;;;;;;8.43;2.90;;;9.00;67.80;;;;;;5081001;28;46431;-65
2023/05/17 01:17:04;;;;;;;12.77;3.33;;;9.00;67.80;;;;;;5097291;27;46407;-67
2023/05/17 01:19:56;;;;;;;4.87;2.63;;;9.00;67.60;;;;;;5079689;28;46377;-65
2023/05/17 01:22:35;;;;;;;13.23;3.33;;;8.90;67.30;;;;;;5080380;28;46537;-66
2023/05/17 01:25:17;;;;;;;11.40;3.00;;;8.90;66.40;;;;;;5079079;28;46454;-65
2023/05/17 01:27:47;;;;;;;8.90;2.60;;;8.80;66.30;;;;;;5081523;28;45832;-66
2023/05/17 01:30:14;;;;;;;8.67;3.03;;;8.80;65.90;;;;;;5080728;28;46373;-66
2023/05/17 01:32:43;;;;;;;3.60;1.87;;;8.70;65.30;;;;;;5081433;28;46593;-67
2023/05/17 01:35:13;;;;;;;8.03;2.23;;;8.70;64.80;;;;;;5079248;28;46499;-67
2023/05/17 01:37:39;;;;;;;10.27;2.57;;;8.70;64.70;;;;;;5081683;28;46288;-67
2023/05/17 01:40:07;;;;;;;3.67;1.90;;;8.70;64.60;;;;;;5079457;28;46472;-67
2023/05/17 01:42:35;;;;;;;8.77;2.17;;;8.60;63.80;;;;;;5080273;28;46755;-66
2023/05/17 01:45:10;;;;;;;7.53;2.60;;;8.60;64.20;;;;;;5076583;28;46480;-66
2023/05/17 01:47:49;;;;;;;6.37;2.17;;;8.50;63.60;;;;;;5081538;28;46389;-67
2023/05/17 01:50:21;;;;;;;7.90;2.00;;;8.50;63.20;;;;;;5080904;28;46314;-65
2023/05/17 01:52:54;;;;;;;5.17;1.73;;;8.50;63.10;;;;;;5080795;28;46408;-65
2023/05/17 01:55:29;;;;;;;5.63;2.10;;;8.40;62.90;;;;;;5080050;28;46429;-67
2023/05/17 01:57:56;;;;;;;6.50;2.03;;;8.40;63.00;;;;;;5079542;28;46455;-68
2023/05/17 02:00:24;;;;;;;10.53;2.10;;;8.50;62.70;;;;;;5081480;28;46416;-66
2023/05/17 02:02:50;;;;;;;9.50;2.03;;;8.40;62.60;;;;;;5084137;28;46420;-64
2023/05/17 02:05:15;;;;;;;6.93;1.83;;;8.40;62.20;;;;;;5075392;28;46304;-66
2023/05/17 02:07:41;;;;;;;5.57;2.20;;;8.30;62.30;;;;;;5074972;28;46384;-66
2023/05/17 02:10:07;;;;;;;11.13;2.10;;;8.20;62.20;;;;;;5080309;28;46378;-66
2023/05/17 02:12:33;;;;;;;9.13;2.63;;;8.20;62.10;;;;;;5078604;28;46366;-66
2023/05/17 02:14:58;;;;;;;6.83;1.90;;;8.20;63.50;;;;;;5078534;28;46376;-67
2023/05/17 02:17:24;;;;;;;7.20;2.13;;;8.20;62.30;;;;;;5076714;28;46392;-67
2023/05/17 02:19:49;;;;;;;5.47;1.73;;;8.20;62.30;;;;;;5077409;27;45825;-67
2023/05/17 02:22:15;;;;;;;8.57;2.17;;;8.10;62.10;;;;;;5076606;28;46397;-66
2023/05/17 02:24:41;;;;;;;9.70;2.67;;;8.20;62.10;;;;;;5080479;28;47222;-67
2023/05/17 02:27:06;;;;;;;5.23;1.80;;;8.20;62.10;;;;;;5080158;28;46516;-67
2023/05/17 02:29:32;;;;;;;8.57;1.67;;;8.20;62.00;;;;;;5075906;28;46515;-67
2023/05/17 02:31:58;;;;;;;6.00;2.10;;;8.10;61.80;;;;;;5080880;28;46398;-66
2023/05/17 02:34:24;;;;;;;8.70;1.70;;;8.10;62.00;;;;;;5077278;28;46392;-66
2023/05/17 02:36:50;;;;;;;4.73;1.60;;;8.10;62.00;;;;;;5079950;28;46476;-67
2023/05/17 02:39:16;;;;;;;7.40;2.00;;;8.10;61.60;;;;;;5079421;28;46631;-66
2023/05/17 02:41:41;;;;;;;3.60;1.60;;;8.10;61.50;;;;;;5079276;28;46410;-67
2023/05/17 02:44:07;;;;;;;5.20;1.57;;;8.10;61.60;;;;;;5077654;28;46508;-67
2023/05/17 02:46:32;;;;;;;4.57;1.77;;;8.00;61.60;;;;;;5080453;28;46394;-66
2023/05/17 02:48:58;;;;;;;4.80;1.50;;;8.00;61.60;;;;;;5079673;28;46361;-66
2023/05/17 02:51:24;;;;;;;4.60;1.60;;;8.00;61.50;;;;;;5080301;28;46693;-66
2023/05/17 02:53:50;;;;;;;5.10;1.67;;;8.00;61.30;;;;;;5076690;28;46662;-66
2023/05/17 02:56:15;;;;;;;3.10;1.63;;;8.00;61.10;;;;;;5077457;28;46498;-66
2023/05/17 02:58:41;;;;;;;5.17;2.10;;;8.00;61.20;;;;;;5078068;28;46652;-67
2023/05/17 03:01:06;;;;;;;6.23;1.80;;;8.00;61.10;;;;;;5079521;28;46355;-66
2023/05/17 03:03:32;;;;;;;9.07;1.80;;;8.00;60.90;;;;;;5074281;28;46416;-66
2023/05/17 03:06:01;;;;;;;4.80;1.60;;;8.00;60.80;;;;;;5078456;28;46360;-66
2023/05/17 03:08:27;;;;;;;7.07;1.90;;;8.00;60.70;;;;;;5077148;28;46407;-66
2023/05/17 03:10:52;;;;;;;5.93;2.03;;;8.00;60.60;;;;;;5077624;28;46367;-67
2023/05/17 03:13:18;;;;;;;9.03;1.80;;;8.00;60.50;;;;;;5078971;28;47165;-66
2023/05/17 03:15:44;;;;;;;11.27;1.53;;;8.00;60.30;;;;;;5079486;28;46439;-65
2023/05/17 03:18:09;;;;;;;4.83;1.90;;;7.90;60.00;;;;;;5079448;28;46447;-66
2023/05/17 03:20:35;;;;;;;6.73;2.00;;;7.90;60.20;;;;;;5078705;28;46383;-66
2023/05/17 03:23:00;;;;;;;4.80;1.50;;;7.80;60.10;;;;;;5079682;28;48320;-66
2023/05/17 03:25:26;;;;;;;9.23;1.80;;;7.80;60.00;;;;;;5076151;28;46454;-66
2023/05/17 03:27:52;;;;;;;10.43;1.77;;;7.80;60.00;;;;;;5077779;28;46543;-66
2023/05/17 03:30:17;;;;;;;16.70;1.70;;;7.80;60.00;;;;;;5076931;28;46376;-66
2023/05/17 03:32:44;;;;;;;6.50;1.70;;;7.80;60.00;;;;;;5077906;28;46405;-66
2023/05/17 03:35:10;;;;;;;9.80;1.80;;;7.80;59.80;;;;;;5074857;28;46361;-66
2023/05/17 03:37:35;;;;;;;4.47;1.40;;;7.80;59.70;;;;;;5074687;28;46543;-65
2023/05/17 03:40:01;;;;;;;4.17;1.80;;;7.70;59.30;;;;;;5078461;28;45950;-66
2023/05/17 03:42:26;;;;;;;5.30;1.70;;;7.70;59.70;;;;;;5078038;28;47251;-65
2023/05/17 03:44:53;;;;;;;8.00;1.83;;;7.70;59.40;;;;;;5075774;28;46506;-66
2023/05/17 03:47:22;;;;;;;9.60;1.83;;;7.70;59.00;;;;;;5078861;28;46412;-66
2023/05/17 03:49:48;;;;;;;3.90;1.77;;;7.70;58.80;;;;;;5080385;28;46432;-66
2023/05/17 03:52:13;;;;;;;3.87;1.50;;;7.80;59.00;;;;;;5072983;27;46270;-66
2023/05/17 03:54:39;;;;;;;6.00;1.50;;;7.80;58.80;;;;;;5079756;28;46321;-66
2023/05/17 03:57:05;;;;;;;4.50;1.33;;;7.80;58.00;;;;;;5075139;28;46404;-65
2023/05/17 03:59:30;;;;;;;9.53;1.70;;;7.80;58.00;;;;;;5078072;28;46366;-66
2023/05/17 04:01:56;;;;;;;3.80;1.33;;;7.80;58.00;;;;;;5077090;28;46384;-66
2023/05/17 04:04:21;;;;;;;4.03;1.73;;;7.80;57.90;;;;;;5076642;28;45829;-66
2023/05/17 04:06:47;;;;;;;7.40;1.60;;;7.80;57.80;;;;;;5074441;28;45796;-66
2023/05/17 04:09:14;;;;;;;5.83;1.43;;;7.80;57.80;;;;;;5077832;28;46352;-66
2023/05/17 04:11:40;;;;;;;8.50;1.60;;;7.90;57.70;;;;;;5078608;28;46724;-67
2023/05/17 04:14:06;;;;;;;4.63;1.60;;;7.90;57.50;;;;;;5077162;28;46424;-66
2023/05/17 04:16:32;;;;;;;5.50;1.33;;;7.90;57.40;;;;;;5076953;28;47384;-66
2023/05/17 04:18:59;;;;;;;7.20;1.80;;;7.90;57.00;;;;;;5074894;28;46522;-67
2023/05/17 04:21:25;;;;;;;4.87;1.50;;;7.90;56.70;;;;;;5078665;28;46591;-66
2023/05/17 04:23:51;;;;;;;6.23;1.40;;;7.90;56.60;;;;;;5077290;28;45803;-66
2023/05/17 04:26:17;;;;;;;6.00;1.37;;;7.90;56.30;;;;;;5075476;28;46401;-66
2023/05/17 04:28:43;;;;;;;5.30;1.57;;;7.90;56.30;;;;;;5080308;28;46326;-66
2023/05/17 04:31:09;;;;;;;4.03;1.53;;;8.00;56.50;;;;;;5076789;28;46541;-66
2023/05/17 04:33:35;;;;;;;5.90;1.80;;;8.00;56.40;;;;;;5076348;28;46507;-66
2023/05/17 04:36:02;;;;;;;3.40;1.47;;;8.00;56.10;;;;;;5077143;28;46496;-66
2023/05/17 04:38:28;;;;;;;7.57;1.60;;;8.00;56.00;;;;;;5075504;28;46410;-66
2023/05/17 04:40:59;;;;;;;18.87;1.97;;;8.00;55.60;;;;;;5073527;28;46616;-65
2023/05/17 04:43:25;;;;;;;10.80;2.13;;;8.00;55.50;;;;;;5078768;27;46356;-67
2023/05/17 04:45:56;;;;;;;7.33;1.70;;;8.00;55.40;;;;;;5079652;28;46365;-65
2023/05/17 04:48:22;;;;;;;3.27;1.53;;;8.00;55.00;;;;;;5081258;28;46475;-65
2023/05/17 04:50:47;;;;;;;4.80;1.30;;;8.00;55.00;;;;;;5079260;28;46183;-65
2023/05/17 04:53:14;;;;;;;8.77;1.67;;;8.10;55.10;;;;;;5079569;28;46389;-65
2023/05/17 04:55:40;;;;;;;4.10;1.47;;;8.10;54.60;;;;;;5082186;28;46531;-67
2023/05/17 04:58:06;;;;;;;8.43;1.53;;;8.10;54.30;;;;;;5080435;28;46648;-66
2023/05/17 05:00:31;;;;;;;3.90;1.50;;;8.20;54.20;;;;;;5082269;28;46525;-66
2023/05/17 05:02:57;;;;;;;14.20;3.87;;;8.30;54.10;;;;;;5080994;28;46427;-66
2023/05/17 05:05:24;;;;;;;7.83;1.90;;;8.40;53.70;;;;;;5079199;28;46337;-67
2023/05/17 05:07:50;;;;;;;6.37;2.57;;;8.40;53.70;;;;;;5079693;28;46250;-66
2023/05/17 05:10:15;;;;;;;5.40;2.30;;;8.50;53.50;;;;;;5080964;28;47141;-66
2023/05/17 05:12:41;;;;;;;3.57;1.90;;;8.60;53.00;;;;;;5080476;28;46417;-66
2023/05/17 05:15:07;;;;;;;5.67;1.70;;;8.60;52.60;;;;;;5079813;28;46418;-67
2023/05/17 05:17:33;;;;;;;2.97;1.43;;;8.80;52.00;;;;;;5078953;28;46504;-66
2023/05/17 05:19:59;;;;;;;5.13;1.90;;;8.80;51.60;;;;;;5080986;28;46467;-66
2023/05/17 05:22:24;;;;;;;6.70;1.30;;;8.80;51.60;;;;;;5080615;28;45766;-66
2023/05/17 05:24:50;;;;;;;6.47;2.80;;;9.00;51.80;;;;;;5080999;28;46399;-65
2023/05/17 05:27:16;;;;;;;4.50;1.60;;;9.00;51.80;;;;;;5081040;28;46372;-66
2023/05/17 05:29:42;;;;;;;12.43;2.17;;;9.20;51.90;;;;;;5082995;28;46398;-66
2023/05/17 05:32:08;;;;;;;4.57;2.13;;;9.30;52.00;;;;;;5080855;28;46358;-66
2023/05/17 05:34:33;;;;;;;5.60;1.70;;;9.30;50.90;;;;;;5080983;28;46476;-66
2023/05/17 05:36:59;;;;;;;4.40;1.50;;;9.30;50.50;;;;;;5082038;28;46438;-67
2023/05/17 05:39:26;;;;;;;6.83;1.60;;;9.30;50.60;;;;;;5079044;28;46439;-66
2023/05/17 05:41:52;;;;;;;8.20;2.90;;;9.20;50.40;;;;;;5079261;28;45773;-67
2023/05/17 05:44:18;;;;;;;6.63;1.80;;;9.20;50.00;;;;;;5081561;28;46470;-66
2023/05/17 05:46:43;;;;;;;7.30;1.63;;;9.20;50.50;;;;;;5082447;28;46491;-66
2023/05/17 05:49:09;;;;;;;8.97;1.80;;;9.30;50.40;;;;;;5078905;28;46357;-66
2023/05/17 05:51:35;;;;;;;7.40;1.50;;;9.50;50.40;;;;;;5082067;28;46427;-66
2023/05/17 05:54:00;;;;;;;5.23;1.60;;;9.60;49.80;;;;;;5079268;27;46429;-67
2023/05/17 05:56:26;;;;;;;5.33;1.80;;;9.60;49.70;;;;;;5081188;28;46557;-67
2023/05/17 05:58:56;;;;;;;5.23;1.50;;;9.80;50.00;;;;;;5080138;28;47095;-67
2023/05/17 06:01:21;;;;;;;8.53;3.13;;;9.90;49.60;;;;;;5078906;28;45817;-67
2023/05/17 06:03:47;;;;;;;6.87;2.63;;;9.90;49.20;;;;;;5071912;28;46380;-66
2023/05/17 06:06:15;;;;;;;15.33;3.43;;;9.90;48.80;;;;;;5073927;28;45969;-65
2023/05/17 06:08:40;;;;;;;7.17;2.03;;;10.20;47.90;;;;;;5073342;28;46149;-67
2023/05/17 06:11:06;;;;;;;4.97;2.40;;;10.40;46.70;;;;;;5075695;28;46689;-66
2023/05/17 06:13:32;;;;;;;3.43;1.50;;;10.90;48.20;;;;;;5075403;28;46529;-67
2023/05/17 06:15:58;;;;;;;7.20;1.87;;;11.20;47.00;;;;;;5074768;28;46409;-68
2023/05/17 06:18:24;;;;;;;3.23;1.20;;;11.60;46.90;;;;;;5077388;28;46832;-67
2023/05/17 06:20:49;;;;;;;4.90;1.60;;;11.70;45.70;;;;;;5076102;28;46474;-67
2023/05/17 06:23:15;;;;;;;4.90;1.70;;;11.70;44.40;;;;;;5074555;28;46349;-67
2023/05/17 06:25:41;;;;;;;6.33;1.50;;;11.70;43.70;;;;;;5074720;28;46642;-67
2023/05/17 06:28:08;;;;;;;11.77;2.20;;;11.50;42.70;;;;;;5073166;28;46837;-67
2023/05/17 06:30:33;;;;;;;8.60;1.73;;;11.30;42.50;;;;;;5076267;28;46528;-67
2023/05/17 06:32:59;;;;;;;6.27;2.20;;;11.40;43.40;;;;;;5074746;28;46237;-68
2023/05/17 06:35:25;;;;;;;9.60;2.40;;;11.20;42.50;;;;;;5076605;28;46777;-65
2023/05/17 06:37:50;;;;;;;5.00;1.70;;;11.20;42.00;;;;;;5077956;28;46959;-67
2023/05/17 06:40:16;;;;;;;8.53;1.90;;;11.30;43.00;;;;;;5072162;28;46321;-66
2023/05/17 06:42:41;;;;;;;5.60;1.50;;;11.20;42.90;;;;;;5077083;28;46425;-66
2023/05/17 06:45:08;;;;;;;7.93;1.87;;;11.60;43.50;;;;;;5073743;28;46428;-65
2023/05/17 06:47:33;;;;;;;4.33;1.77;;;11.50;40.80;;;;;;5074482;28;46658;-66
2023/05/17 06:49:59;;;;;;;7.00;1.67;;;11.70;40.80;;;;;;5075619;28;46611;-66
2023/05/17 06:52:24;;;;;;;5.53;1.90;;;11.70;40.00;;;;;;5076018;28;46549;-66
2023/05/17 06:54:50;;;;;;;5.80;1.67;;;11.60;40.00;;;;;;5074333;28;46654;-67
2023/05/17 06:57:16;;;;;;;6.47;1.80;;;11.40;39.70;;;;;;5075237;28;46256;-68
2023/05/17 06:59:42;;;;;;;5.03;1.40;;;11.10;39.40;;;;;;5076483;28;46596;-66
2023/05/17 07:02:07;;;;;;;7.67;2.30;;;11.10;39.40;;;;;;5073845;28;46199;-63
2023/05/17 07:04:33;;;;;;;3.87;1.50;;;11.10;39.40;;;;;;5074807;28;46521;-64
2023/05/17 07:07:00;;;;;;;7.60;1.60;;;11.30;39.70;;;;;;5072378;27;47385;-64
2023/05/17 07:09:26;;;;;;;6.50;1.63;;;11.70;38.10;;;;;;5073279;28;46416;-66
2023/05/17 07:11:51;;;;;;;20.23;1.93;;;12.00;38.10;;;;;;5075606;28;46432;-65
2023/05/17 07:14:17;;;;;;;11.80;1.97;;;12.00;35.20;;;;;;5073671;28;46809;-66
2023/05/17 07:16:42;;;;;;;9.37;2.43;;;12.10;35.60;;;;;;5080508;28;46403;-65
2023/05/17 07:19:08;;;;;;;17.60;2.10;;;12.20;37.10;;;;;;5082209;28;46419;-65
2023/05/17 07:21:33;;;;;;;6.60;1.93;;;12.30;35.80;;;;;;5074657;28;46416;-65
2023/05/17 07:23:59;;;;;;;4.73;1.60;;;11.90;34.70;;;;;;5074563;28;46428;-66
2023/05/17 07:26:25;;;;;;;12.83;2.13;;;12.00;35.10;;;;;;5076224;28;46309;-66
2023/05/17 07:28:51;;;;;;;5.10;2.10;;;11.90;35.50;;;;;;5075293;27;46422;-65
2023/05/17 07:31:16;;;;;;;7.67;2.00;;;11.70;35.60;;;;;;5073637;28;46482;-65
2023/05/17 07:33:42;;;;;;;17.10;2.70;;;11.50;36.60;;;;;;5073203;28;46499;-65
2023/05/17 07:36:08;;;;;;;6.90;2.00;;;11.30;36.90;;;;;;5075241;28;46476;-65
2023/05/17 07:38:36;;;;;;;6.70;2.00;;;11.30;37.20;;;;;;5073848;28;45976;-66
2023/05/17 07:41:03;;;;;;;3.63;1.33;;;11.40;37.30;;;;;;5076846;28;46677;-65
2023/05/17 07:43:29;;;;;;;9.40;2.07;;;11.70;36.50;;;;;;5074389;28;46528;-66
2023/05/17 07:45:54;;;;;;;6.87;1.97;;;11.90;36.10;;;;;;5075079;28;46984;-65
2023/05/17 07:48:20;;;;;;;4.73;1.73;;;11.80;36.30;;;;;;5074222;28;46367;-66
2023/05/17 07:50:46;;;;;;;5.43;1.63;;;12.00;36.00;;;;;;5072745;28;46308;-64
2023/05/17 07:53:11;;;;;;;8.30;1.83;;;12.20;35.60;;;;;;5076716;28;46419;-66
2023/05/17 07:55:37;;;;;;;5.83;1.93;;;12.40;35.50;;;;;;5072662;28;47062;-65
2023/05/17 07:58:03;;;;;;;6.23;1.70;;;12.50;34.80;;;;;;5075536;28;47062;-64
2023/05/17 08:00:28;;;;;;;4.43;1.70;;;12.50;33.60;;;;;;5072966;28;46488;-66
2023/05/17 08:02:56;;;;;;;8.27;2.10;;;12.40;33.60;;;;;;5075388;28;46454;-66
2023/05/17 08:05:21;;;;;;;4.33;1.83;;;12.60;33.20;;;;;;5074344;28;46963;-65
2023/05/17 08:07:47;;;;;;;11.37;2.77;;;12.70;32.80;;;;;;5073723;28;46503;-64
2023/05/17 08:10:13;;;;;;;7.40;1.90;;;12.70;32.50;;;;;;5072293;28;46466;-65
2023/05/17 08:12:38;;;;;;;9.27;2.33;;;12.80;32.30;;;;;;5075233;28;46377;-66
2023/05/17 08:15:04;;;;;;;9.60;2.47;;;12.80;32.10;;;;;;5074759;28;46924;-64
2023/05/17 08:17:30;;;;;;;6.83;1.93;;;12.90;32.80;;;;;;5075234;28;46419;-65
2023/05/17 08:19:55;;;;;;;3.93;1.63;;;13.10;32.40;;;;;;5078447;28;46329;-64
2023/05/17 08:22:21;;;;;;;6.60;2.93;;;12.60;31.80;;;;;;5074697;28;46495;-63
2023/05/17 08:24:46;;;;;;;8.30;2.30;;;12.30;32.20;;;;;;5076618;28;46322;-65
2023/05/17 08:27:12;;;;;;;5.67;1.60;;;12.20;31.90;;;;;;5077359;28;46455;-66
2023/05/17 08:29:38;;;;;;;7.77;2.13;;;12.10;32.80;;;;;;5078694;28;46333;-66
2023/05/17 08:32:04;;;;;;;9.30;1.93;;;12.10;32.80;;;;;;5078195;28;46480;-65
2023/05/17 08:34:29;;;;;;;5.57;2.00;;;11.80;33.00;;;;;;5078253;28;46494;-64
2023/05/17 08:36:55;;;;;;;6.47;2.30;;;11.70;33.70;;;;;;5079918;28;46853;-65
2023/05/17 08:39:20;;;;;;;6.77;1.73;;;11.80;33.50;;;;;;5078699;28;46514;-67
2023/05/17 08:41:47;;;;;;;4.40;1.97;;;11.60;33.50;;;;;;5076895;28;46929;-64
2023/05/17 08:44:15;;;;;;;8.93;1.97;;;11.90;33.80;;;;;;5078566;28;46417;-64
2023/05/17 08:46:43;;;;;;;6.37;2.17;;;12.20;33.30;;;;;;5078650;28;46388;-65
2023/05/17 08:49:11;;;;;;;8.73;1.97;;;12.40;33.30;;;;;;5079093;28;46487;-65
2023/05/17 08:51:38;;;;;;;9.33;2.90;;;12.30;33.20;;;;;;5077984;28;46732;-64
2023/05/17 08:54:07;;;;;;;10.83;3.20;;;12.30;33.40;;;;;;5076761;28;46446;-63
2023/05/17 08:56:38;;;;;;;20.13;3.63;;;12.20;33.40;;;;;;5074281;28;47524;-64
2023/05/17 08:59:06;;;;;;;6.10;2.80;;;12.60;33.40;;;;;;5076689;28;46446;-63
2023/05/17 09:01:32;;;;;;;12.50;4.90;;;13.20;32.50;;;;;;5091516;27;46308;-64
2023/05/17 09:03:59;;;;;;;8.70;3.00;;;13.20;31.80;;;;;;5077154;28;47260;-64
2023/05/17 09:06:25;;;;;;;11.50;3.40;;;13.10;31.80;;;;;;5076547;28;46443;-63
2023/05/17 09:08:52;;;;;;;6.27;2.37;;;13.10;31.30;;;;;;5076754;28;46372;-64
2023/05/17 09:11:28;;;;;;;30.80;11.70;;;13.40;31.70;;;;;;5077246;28;46362;-65
2023/05/17 09:14:01;;;;;;;38.93;14.40;;;13.60;30.80;;;;;;5074931;28;47251;-65
2023/05/17 09:16:32;;;;;;;20.13;5.30;;;13.50;30.50;;;;;;5075489;28;46376;-66
2023/05/17 09:18:58;;;;;;;11.80;3.50;;;13.20;30.80;;;;;;5076904;28;46529;-66
2023/05/17 09:21:25;;;;;;;8.87;2.70;;;13.20;30.40;;;;;;5076122;28;46384;-65
2023/05/17 09:23:52;;;;;;;9.03;2.50;;;13.50;29.90;;;;;;5074362;28;46667;-64
2023/05/17 09:26:19;;;;;;;7.03;2.60;;;14.00;29.50;;;;;;5077406;28;46428;-65
2023/05/17 09:28:46;;;;;;;17.20;5.87;;;14.40;28.70;;;;;;5077809;27;46470;-66
2023/05/17 09:31:15;;;;;;;9.03;2.43;;;14.60;27.90;;;;;;5074916;28;46510;-64
2023/05/17 09:33:45;;;;;;;6.13;1.70;;;14.80;28.40;;;;;;5075842;28;46454;-64
2023/05/17 09:36:22;;;;;;;8.70;1.97;;;15.10;28.00;;;;;;5074311;28;46624;-64
2023/05/17 09:38:58;;;;;;;10.80;1.97;;;15.60;27.20;;;;;;5073076;28;46381;-63
2023/05/17 09:41:31;;;;;;;24.20;4.70;;;15.70;26.90;;;;;;5075819;28;46450;-62
2023/05/17 09:44:00;;;;;;;9.73;1.87;;;15.70;25.70;;;;;;5073759;28;46882;-66
2023/05/17 09:46:39;;;;;;;4.33;1.90;;;15.10;26.50;;;;;;5073640;28;46554;-64
2023/05/17 09:49:06;;;;;;;4.90;1.50;;;14.80;27.10;;;;;;5070749;28;46285;-63
2023/05/17 09:51:43;;;;;;;4.97;1.60;;;14.60;27.90;;;;;;5074885;28;47480;-64
2023/05/17 09:54:10;;;;;;;6.80;2.20;;;14.60;26.70;;;;;;5075662;28;46094;-65
2023/05/17 09:56:35;;;;;;;8.00;2.07;;;14.60;27.00;;;;;;5073241;28;46517;-64
2023/05/17 09:59:03;;;;;;;5.77;1.97;;;14.40;26.90;;;;;;5075567;28;46420;-64
2023/05/17 10:01:30;;;;;;;8.30;2.60;;;14.20;27.70;;;;;;5074518;28;46469;-65
2023/05/17 10:04:00;;;;;;;9.57;2.43;;;14.60;26.90;;;;;;5073966;28;46798;-65
2023/05/17 10:06:28;;;;;;;5.77;2.10;;;15.10;26.40;;;;;;5073654;28;46420;-64
2023/05/17 10:08:55;;;;;;;4.60;1.73;;;15.80;25.70;;;;;;5077744;28;46415;-64
2023/05/17 10:11:26;;;;;;;7.93;1.93;;;16.00;24.50;;;;;;5075100;28;46674;-65
2023/05/17 10:14:32;;;;;;;8.07;1.93;;;16.30;23.80;;;;;;5075159;28;46516;-63
2023/05/17 10:16:59;;;;;;;11.60;2.00;;;16.40;22.30;;;;;;5072568;27;46377;-63
2023/05/17 10:19:25;;;;;;;8.50;2.50;;;16.10;22.40;;;;;;5073132;28;45968;-65
2023/05/17 10:21:52;;;;;;;4.30;1.73;;;16.40;22.30;;;;;;5074843;28;46377;-63
2023/05/17 10:24:20;;;;;;;6.57;1.80;;;16.60;21.40;;;;;;5074641;28;47105;-64
2023/05/17 10:26:48;;;;;;;7.30;1.80;;;16.30;21.50;;;;;;5076125;28;45853;-64
2023/05/17 10:29:14;;;;;;;5.80;2.07;;;15.80;20.90;;;;;;5075487;28;46365;-64
2023/05/17 10:31:43;;;;;;;7.67;2.23;;;15.60;21.90;;;;;;5076446;28;46749;-64
2023/05/17 10:34:11;;;;;;;5.53;2.13;;;15.60;21.70;;;;;;5075460;28;46814;-64
2023/05/17 10:36:37;;;;;;;8.33;2.43;;;15.80;21.70;;;;;;5075873;28;46382;-63
2023/05/17 10:39:08;;;;;;;7.20;2.27;;;15.80;20.90;;;;;;5074680;28;46608;-64
2023/05/17 10:41:36;;;;;;;10.70;2.33;;;16.10;20.90;;;;;;5076643;28;46377;-64
2023/05/17 10:44:06;;;;;;;8.33;2.10;;;15.90;19.50;;;;;;5067308;27;46449;-65
2023/05/17 10:46:32;;;;;;;5.83;1.83;;;16.00;18.60;;;;;;5073619;28;46534;-64
2023/05/17 10:49:00;;;;;;;5.30;1.97;;;15.70;17.80;;;;;;5073609;28;46455;-64
2023/05/17 10:51:36;;;;;;;5.10;1.90;;;15.60;17.50;;;;;;5074788;27;45944;-64
2023/05/17 10:54:20;;;;;;;5.33;1.77;;;15.30;17.50;;;;;;5074953;28;46190;-64
2023/05/17 10:56:48;;;;;;;7.80;1.53;;;15.60;18.70;;;;;;5075072;28;46478;-65
2023/05/17 10:59:20;;;;;;;5.60;1.93;;;15.90;17.20;;;;;;5073620;28;46468;-62
2023/05/17 11:01:49;;;;;;;6.07;2.13;;;15.70;17.40;;;;;;5076209;28;45857;-64
2023/05/17 11:04:31;;;;;;;6.13;1.80;;;15.40;17.30;;;;;;5072366;28;46707;-65
2023/05/17 11:07:22;;;;;;;5.63;1.83;;;15.40;17.90;;;;;;5073111;28;46450;-63
2023/05/17 11:09:50;;;;;;;5.87;2.30;;;15.40;17.90;;;;;;5072423;28;46423;-64
2023/05/17 11:12:28;;;;;;;4.40;1.93;;;15.80;17.50;;;;;;5073934;28;46684;-64
2023/05/17 11:14:54;;;;;;;6.27;1.97;;;16.10;17.40;;;;;;5072050;28;47674;-65
2023/05/17 11:17:23;;;;;;;5.33;2.20;;;16.40;17.30;;;;;;5074809;28;46419;-64
2023/05/17 11:20:08;;;;;;;6.67;2.10;;;16.40;17.20;;;;;;5074908;28;46391;-65
2023/05/17 11:22:42;;;;;;;4.00;2.00;;;16.10;17.60;;;;;;5073290;28;46161;-63
2023/05/17 11:25:13;;;;;;;5.70;1.80;;;15.50;17.50;;;;;;5074740;28;46089;-63
2023/05/17 11:27:42;;;;;;;10.50;2.93;;;15.20;17.90;;;;;;5074081;28;46542;-65
2023/05/17 11:30:16;;;;;;;9.50;2.00;;;15.20;17.90;;;;;;5075320;28;45994;-65
2023/05/17 11:32:46;;;;;;;4.33;1.80;;;15.60;17.70;;;;;;5075244;28;46414;-64
2023/05/17 11:35:13;;;;;;;4.60;1.87;;;15.80;17.50;;;;;;5071648;28;49233;-64
2023/05/17 11:37:43;;;;;;;9.30;2.00;;;15.90;16.60;;;;;;5072546;28;46385;-64
2023/05/17 11:40:11;;;;;;;5.90;1.90;;;16.00;16.30;;;;;;5075293;28;46535;-64
2023/05/17 11:42:38;;;;;;;6.83;2.00;;;16.30;17.00;;;;;;5074717;28;47012;-64
2023/05/17 11:45:04;;;;;;;6.40;1.97;;;16.40;16.10;;;;;;5073432;28;46715;-65
2023/05/17 11:47:31;;;;;;;9.97;2.23;;;16.40;16.30;;;;;;5074393;28;46510;-64
2023/05/17 11:50:01;;;;;;;6.83;2.43;;;16.20;15.80;;;;;;5075454;28;46421;-65
2023/05/17 11:52:28;;;;;;;6.30;2.30;;;16.20;16.00;;;;;;5073594;28;46776;-65
2023/05/17 11:54:54;;;;;;;7.13;2.00;;;16.10;16.30;;;;;;5073781;28;47124;-65
2023/05/17 11:57:21;;;;;;;5.97;2.13;;;16.40;15.90;;;;;;5074881;28;46413;-64
2023/05/17 11:59:47;;;;;;;4.60;1.80;;;16.50;15.80;;;;;;5074694;28;46507;-63
2023/05/17 12:02:29;;;;;;;5.03;1.70;;;16.90;15.10;;;;;;5074694;28;46555;-65
2023/05/17 12:04:55;;;;;;;7.63;2.27;;;17.20;14.60;;;;;;5071702;28;46720;-65
2023/05/17 12:07:21;;;;;;;4.93;2.10;;;17.10;13.70;;;;;;5075375;28;45751;-64
2023/05/17 12:09:47;;;;;;;5.70;1.80;;;16.70;14.80;;;;;;5074430;28;46384;-64
2023/05/17 12:12:14;;;;;;;6.50;2.33;;;16.30;15.20;;;;;;5071358;28;46521;-64
2023/05/17 12:14:43;;;;;;;11.23;2.40;;;15.90;15.30;;;;;;5073161;28;46416;-63
2023/05/17 12:17:12;;;;;;;6.93;2.00;;;15.60;15.20;;;;;;5076659;28;46588;-64
2023/05/17 12:19:38;;;;;;;8.50;2.47;;;15.40;15.70;;;;;;5075720;28;46566;-64
2023/05/17 12:22:13;;;;;;;8.27;2.30;;;15.60;16.80;;;;;;5072921;28;46484;-66
2023/05/17 12:24:41;;;;;;;6.03;2.20;;;15.90;16.00;;;;;;5071885;28;47153;-65
2023/05/17 12:27:07;;;;;;;9.80;2.03;;;15.90;15.50;;;;;;5072987;28;46437;-64
2023/05/17 12:29:32;;;;;;;4.63;2.00;;;15.90;14.40;;;;;;5075304;28;46404;-63
2023/05/17 12:32:00;;;;;;;9.53;2.50;;;16.10;14.80;;;;;;5074556;28;46398;-65
2023/05/17 12:34:27;;;;;;;4.80;2.10;;;16.30;14.00;;;;;;5075245;27;47053;-64
2023/05/17 12:36:53;;;;;;;9.80;2.87;;;16.80;13.70;;;;;;5071512;28;46460;-65
2023/05/17 12:39:22;;;;;;;6.37;2.60;;;17.40;13.40;;;;;;5076580;28;46478;-64
2023/05/17 12:41:50;;;;;;;5.00;2.50;;;17.40;12.00;;;;;;5074194;28;46567;-64
2023/05/17 12:44:16;;;;;;;6.60;2.40;;;17.20;12.80;;;;;;5075376;28;46863;-65
2023/05/17 12:46:43;;;;;;;6.93;2.47;;;17.20;12.90;;;;;;5075047;28;45810;-65
2023/05/17 12:49:12;;;;;;;9.10;3.20;;;17.10;12.90;;;;;;5074071;27;46308;-65
2023/05/17 12:51:44;;;;;;;6.67;2.50;;;17.00;13.50;;;;;;5071646;28;46482;-64